Time,TemperatureF,DewpointF,PressureIn,WindDirection,WindDirectionDegrees,WindSpeedMPH,WindSpeedGustMPH,Humidity,HourlyPrecipIn,Conditions,Clouds,dailyrainin,SoftwareType,DateUTC
2013-05-15 00:13:00,50.4,46.0,29.96,SW,222,0.0,0.0,86,0.00,,,0.00,weatherlink.com 1.10,2013-05-15 07:13:00,
2013-05-15 00:28:00,49.9,46.0,29.97,SSW,210,0.0,0.0,87,0.00,,,0.00,weatherlink.com 1.10,2013-05-15 07:28:00,
2013-05-15 00:43:00,49.4,46.0,29.97,SSW,192,0.0,0.0,87,0.00,,,0.00,weatherlink.com 1.10,2013-05-15 07:43:00,
2013-05-15 00:58:00,49.1,46.0,29.97,SSW,193,0.0,0.0,88,0.00,,,0.00,weatherlink.com 1.10,2013-05-15 07:58:00,
2013-05-15 01:13:00,49.0,46.0,29.96,SSW,193,0.0,0.0,89,0.00,,,0.00,weatherlink.com 1.10,2013-05-15 08:13:00,
2013-05-15 01:28:00,48.4,45.0,29.96,SSW,195,0.0,0.0,89,0.00,,,0.00,weatherlink.com 1.10,2013-05-15 08:28:00,
2013-05-15 01:43:00,48.4,46.0,29.96,SE,146,0.0,0.0,90,0.00,,,0.00,weatherlink.com 1.10,2013-05-15 08:43:00,
2013-05-15 01:58:00,48.0,45.0,29.96,SSW,205,0.0,0.0,90,0.00,,,0.00,weatherlink.com 1.10,2013-05-15 08:58:00,
2013-05-15 02:13:00,47.9,45.0,29.96,SSE,163,0.0,0.0,90,0.00,,,0.00,weatherlink.com 1.10,2013-05-15 09:13:00,
2013-05-15 02:28:00,47.7,45.0,29.96,SSE,163,0.0,0.0,90,0.00,,,0.00,weatherlink.com 1.10,2013-05-15 09:28:00,
2013-05-15 02:43:00,47.3,45.0,29.96,SSE,163,0.0,0.0,91,0.00,,,0.00,weatherlink.com 1.10,2013-05-15 09:43:00,
2013-05-15 02:58:00,47.9,45.0,29.97,NNW,342,0.0,0.0,90,0.00,,,0.00,weatherlink.com 1.10,2013-05-15 09:58:00,
2013-05-15 03:13:00,47.5,45.0,29.96,NNW,343,0.0,0.0,89,0.00,,,0.00,weatherlink.com 1.10,2013-05-15 10:13:00,
2013-05-15 03:28:00,47.2,45.0,29.96,SSE,158,0.0,0.0,90,0.00,,,0.00,weatherlink.com 1.10,2013-05-15 10:28:00,
2013-05-15 03:44:00,46.9,45.0,29.97,SE,136,0.0,0.0,91,0.00,,,0.00,weatherlink.com 1.10,2013-05-15 10:44:00,
2013-05-15 03:59:00,46.5,44.0,29.97,SW,217,0.0,0.0,91,0.00,,,0.00,weatherlink.com 1.10,2013-05-15 10:59:00,
2013-05-15 04:14:00,46.3,44.0,29.96,SE,135,0.0,0.0,92,0.00,,,0.00,weatherlink.com 1.10,2013-05-15 11:14:00,
2013-05-15 04:29:00,46.3,44.0,29.97,SE,135,0.0,0.0,92,0.00,,,0.00,weatherlink.com 1.10,2013-05-15 11:29:00,
2013-05-15 04:44:00,46.3,44.0,29.97,SE,135,0.0,0.0,92,0.00,,,0.00,weatherlink.com 1.10,2013-05-15 11:44:00,
2013-05-15 04:59:00,45.7,44.0,29.98,SW,217,0.0,0.0,92,0.00,,,0.00,weatherlink.com 1.10,2013-05-15 11:59:00,
2013-05-15 05:14:00,46.0,44.0,29.97,ESE,108,0.0,0.0,93,0.00,,,0.00,weatherlink.com 1.10,2013-05-15 12:14:00,
2013-05-15 05:29:00,45.9,44.0,29.98,East,94,0.0,0.0,92,0.00,,,0.00,weatherlink.com 1.10,2013-05-15 12:29:00,
2013-05-15 05:59:00,45.6,44.0,29.98,East,96,0.0,0.0,93,0.00,,,0.00,weatherlink.com 1.10,2013-05-15 12:59:00,
2013-05-15 06:14:00,45.7,44.0,29.99,SSE,155,0.0,0.0,94,0.00,,,0.00,weatherlink.com 1.10,2013-05-15 13:14:00,
2013-05-15 06:29:00,46.2,44.0,29.98,SE,131,0.0,0.0,93,0.00,,,0.00,weatherlink.com 1.10,2013-05-15 13:29:00,
2013-05-15 06:44:00,46.9,45.0,29.99,SE,132,0.0,0.0,92,0.00,,,0.00,weatherlink.com 1.10,2013-05-15 13:44:00,
2013-05-15 06:58:00,48.3,46.0,29.99,SE,131,0.0,0.0,90,0.00,,,0.00,weatherlink.com 1.10,2013-05-15 13:58:00,
2013-05-15 07:14:00,50.1,47.0,30.00,SE,131,0.0,0.0,88,0.00,,,0.00,weatherlink.com 1.10,2013-05-15 14:14:00,
2013-05-15 07:29:00,50.4,46.0,30.00,South,169,0.0,0.0,86,0.00,,,0.00,weatherlink.com 1.10,2013-05-15 14:29:00,
2013-05-15 07:44:00,51.2,47.0,30.01,SW,215,1.0,6.0,85,0.00,,,0.00,weatherlink.com 1.10,2013-05-15 14:44:00,
2013-05-15 07:59:00,52.5,48.0,30.01,South,171,0.0,1.0,83,0.00,,,0.00,weatherlink.com 1.10,2013-05-15 14:59:00,
2013-05-15 08:14:00,54.1,48.0,30.01,SW,225,0.0,3.0,80,0.00,,,0.00,weatherlink.com 1.10,2013-05-15 15:14:00,
2013-05-15 08:44:00,60.4,49.0,30.01,SSE,156,0.0,0.0,66,0.00,,,0.00,weatherlink.com 1.10,2013-05-15 15:44:00,
2013-05-15 08:59:00,61.0,48.0,30.02,NW,311,2.0,4.0,62,0.00,,,0.00,weatherlink.com 1.10,2013-05-15 15:59:00,
2013-05-15 09:29:00,61.5,48.0,30.02,SSW,205,1.0,4.0,61,0.00,,,0.00,weatherlink.com 1.10,2013-05-15 16:29:00,
2013-05-15 09:44:00,62.7,48.0,30.02,WNW,288,2.0,5.0,59,0.00,,,0.00,weatherlink.com 1.10,2013-05-15 16:44:00,
2013-05-15 10:15:00,65.5,47.0,30.02,SE,127,3.0,5.0,52,0.00,,,0.00,weatherlink.com 1.10,2013-05-15 17:15:00,
2013-05-15 10:30:00,65.8,46.0,30.02,SSE,160,3.0,5.0,50,0.00,,,0.00,weatherlink.com 1.10,2013-05-15 17:30:00,
2013-05-15 10:45:00,65.7,46.0,30.01,SW,228,0.0,6.0,50,0.00,,,0.00,weatherlink.com 1.10,2013-05-15 17:45:00,
2013-05-15 11:00:00,65.9,46.0,30.02,SSE,165,0.0,5.0,49,0.00,,,0.00,weatherlink.com 1.10,2013-05-15 18:00:00,
2013-05-15 11:15:00,68.0,47.0,30.02,South,179,4.0,8.0,48,0.00,,,0.00,weatherlink.com 1.10,2013-05-15 18:15:00,
2013-05-15 11:30:00,69.6,48.0,30.02,West,276,0.0,3.0,46,0.00,,,0.00,weatherlink.com 1.10,2013-05-15 18:30:00,
2013-05-15 12:15:00,72.4,48.0,30.01,WSW,249,2.0,5.0,42,0.00,,,0.00,weatherlink.com 1.10,2013-05-15 19:15:00,
2013-05-15 12:30:00,73.7,48.0,30.00,WNW,293,4.0,6.0,40,0.00,,,0.00,weatherlink.com 1.10,2013-05-15 19:30:00,
2013-05-15 13:00:00,74.1,48.0,30.00,SW,214,2.0,6.0,39,0.00,,,0.00,weatherlink.com 1.10,2013-05-15 20:00:00,
2013-05-15 13:30:00,76.6,49.0,29.99,SSW,206,2.0,4.0,38,0.00,,,0.00,weatherlink.com 1.10,2013-05-15 20:30:00,
2013-05-15 13:46:00,76.9,49.0,29.99,SSW,193,3.0,9.0,37,0.00,,,0.00,weatherlink.com 1.10,2013-05-15 20:46:00,
2013-05-15 14:00:00,77.7,50.0,29.99,WSW,239,2.0,6.0,38,0.00,,,0.00,weatherlink.com 1.10,2013-05-15 21:00:00,
2013-05-15 14:45:00,75.7,52.0,29.99,SW,214,8.0,15.0,44,0.00,,,0.00,weatherlink.com 1.10,2013-05-15 21:45:00,
2013-05-15 15:00:00,75.1,52.0,29.98,South,169,5.0,14.0,44,0.00,,,0.00,weatherlink.com 1.10,2013-05-15 22:00:00,
2013-05-15 15:15:00,75.7,53.0,29.98,South,177,7.0,12.0,45,0.00,,,0.00,weatherlink.com 1.10,2013-05-15 22:15:00,
2013-05-15 15:30:00,75.0,53.0,29.98,SSW,203,8.0,16.0,47,0.00,,,0.00,weatherlink.com 1.10,2013-05-15 22:30:00,
2013-05-15 15:45:00,74.0,52.0,29.97,SW,215,4.0,15.0,47,0.00,,,0.00,weatherlink.com 1.10,2013-05-15 22:45:00,
2013-05-15 16:00:00,74.0,52.0,29.97,South,181,6.0,14.0,47,0.00,,,0.00,weatherlink.com 1.10,2013-05-15 23:00:00,
2013-05-15 16:15:00,73.8,52.0,29.97,SSW,197,11.0,16.0,47,0.00,,,0.00,weatherlink.com 1.10,2013-05-15 23:15:00,
2013-05-15 16:30:00,73.8,53.0,29.96,SSE,147,2.0,15.0,48,0.00,,,0.00,weatherlink.com 1.10,2013-05-15 23:30:00,
2013-05-15 16:45:00,75.0,53.0,29.96,SW,222,5.0,11.0,46,0.00,,,0.00,weatherlink.com 1.10,2013-05-15 23:45:00,
2013-05-15 17:00:00,74.6,54.0,29.96,SSE,168,3.0,12.0,48,0.00,,,0.00,weatherlink.com 1.10,2013-05-16 00:00:00,
2013-05-15 17:15:00,74.4,53.0,29.96,WSW,252,8.0,14.0,48,0.00,,,0.00,weatherlink.com 1.10,2013-05-16 00:15:00,
2013-05-15 17:30:00,73.2,53.0,29.96,SSW,203,7.0,12.0,49,0.00,,,0.00,weatherlink.com 1.10,2013-05-16 00:30:00,
2013-05-15 17:45:00,72.3,53.0,29.96,WSW,250,7.0,12.0,51,0.00,,,0.00,weatherlink.com 1.10,2013-05-16 00:45:00,
2013-05-15 18:15:00,70.9,53.0,29.96,SSW,203,3.0,13.0,53,0.00,,,0.00,weatherlink.com 1.10,2013-05-16 01:15:00,
2013-05-15 19:00:00,69.0,53.0,29.95,SSW,202,0.0,11.0,57,0.00,,,0.00,weatherlink.com 1.10,2013-05-16 02:00:00,
2013-05-15 19:15:00,69.5,53.0,29.95,SSW,203,6.0,8.0,56,0.00,,,0.00,weatherlink.com 1.10,2013-05-16 02:15:00,
2013-05-15 19:30:00,67.6,53.0,29.96,SSW,198,5.0,8.0,59,0.00,,,0.00,weatherlink.com 1.10,2013-05-16 02:30:00,
2013-05-15 20:15:00,61.6,52.0,29.97,SSW,211,3.0,6.0,70,0.00,,,0.00,weatherlink.com 1.10,2013-05-16 03:15:00,
2013-05-15 20:30:00,60.6,52.0,29.98,SW,218,3.0,6.0,72,0.00,,,0.00,weatherlink.com 1.10,2013-05-16 03:30:00,
2013-05-15 20:45:00,60.1,51.0,29.98,South,188,4.0,6.0,73,0.00,,,0.00,weatherlink.com 1.10,2013-05-16 03:45:00,
2013-05-15 21:00:00,59.6,51.0,29.98,West,262,0.0,0.0,74,0.00,,,0.00,weatherlink.com 1.10,2013-05-16 04:00:00,
2013-05-15 21:15:00,58.6,51.0,29.99,SSW,205,1.0,2.0,75,0.00,,,0.00,weatherlink.com 1.10,2013-05-16 04:15:00,
2013-05-15 21:30:00,58.0,51.0,29.99,SW,231,0.0,1.0,77,0.00,,,0.00,weatherlink.com 1.10,2013-05-16 04:30:00,
2013-05-15 21:45:00,57.0,50.0,29.99,SW,223,0.0,0.0,78,0.00,,,0.00,weatherlink.com 1.10,2013-05-16 04:45:00,
2013-05-15 22:00:00,56.0,50.0,30.00,WSW,257,0.0,0.0,80,0.00,,,0.00,weatherlink.com 1.10,2013-05-16 05:00:00,
2013-05-15 22:15:00,55.4,50.0,30.00,SSW,200,0.0,0.0,82,0.00,,,0.00,weatherlink.com 1.10,2013-05-16 05:15:00,
2013-05-15 22:30:00,54.9,50.0,30.00,SSW,210,0.0,0.0,83,0.00,,,0.00,weatherlink.com 1.10,2013-05-16 05:30:00,
2013-05-15 22:45:00,55.4,50.0,30.00,SSE,153,0.0,0.0,81,0.00,,,0.00,weatherlink.com 1.10,2013-05-16 05:45:00,
2013-05-15 23:00:00,55.5,50.0,30.00,SSW,200,0.0,0.0,81,0.00,,,0.00,weatherlink.com 1.10,2013-05-16 06:00:00,
2013-05-15 23:15:00,55.7,50.0,30.01,South,183,3.0,6.0,80,0.00,,,0.00,weatherlink.com 1.10,2013-05-16 06:15:00,
2013-05-15 23:30:00,56.1,49.0,30.00,SE,129,0.0,3.0,78,0.00,,,0.00,weatherlink.com 1.10,2013-05-16 06:30:00,
2013-05-15 23:45:00,56.5,49.0,30.00,NNW,328,0.0,4.0,77,0.00,,,0.00,weatherlink.com 1.10,2013-05-16 06:45:00,